Terminal Aerodrome Forecast
Issued by NWS St Louis, MO

Home | Current Version | Previous Version | Text Only | Print | Product List | Glossary On
Versions: 1 2 3 4 5 6 7 8 9 10 11 12 13 14 15 16 17 18 19 20 21 22 23 24 25 26 27 28 29 30 31 32 33 34 35 36 37
000
FTUS43 KLSX 301128
TAFSTL
TAF
KSTL 301128Z 3012/3118 19009KT 5SM -SHRA VCTS OVC040CB
      TEMPO 3015/3019 3SM -TSRA BKN025CB
     FM301900 23010KT P6SM VCSH OVC050
     FM302200 26009KT P6SM VCSH BKN050
     FM310500 27008KT P6SM OVC015=

USA.gov is the U.S. government's official web portal to all federal, state and local government web resources and services.